createdAt,value
2023-04-28T00:01:20.413Z,101099.22
2023-04-28T00:22:59.643Z,101131.06
2023-04-28T00:31:47.701Z,101097.03
2023-04-28T01:35:49.969Z,101131.19
2023-04-28T01:49:11.191Z,101114.50
2023-04-28T01:57:51.099Z,101119.72
2023-04-28T02:24:37.296Z,101137.09
2023-04-28T02:33:02.030Z,101084.22
2023-04-28T03:19:02.110Z,101148.44
2023-04-28T03:22:38.418Z,101152.09
2023-04-28T03:25:53.637Z,101168.19
2023-04-28T03:29:28.683Z,101107.25
2023-04-28T03:36:47.519Z,101165.97
2023-04-28T03:40:09.727Z,101130.41
2023-04-28T03:43:38.121Z,101109.19
2023-04-28T03:47:05.649Z,101143.78
2023-04-28T03:50:30.893Z,101162.13
2023-04-28T03:53:46.694Z,101168.88
2023-04-28T03:57:04.810Z,101131.25
2023-04-28T04:00:31.109Z,101111.91
2023-04-28T04:03:48.152Z,101113.78
2023-04-28T04:06:58.349Z,101142.97
2023-04-28T04:10:19.733Z,101126.28
2023-04-28T04:13:43.272Z,101165.63
2023-04-28T04:17:03.131Z,101178.03
2023-04-28T04:20:20.433Z,101181.72
2023-04-28T04:23:29.642Z,101179.94
2023-04-28T04:26:54.108Z,101188.19
2023-04-28T04:34:31.128Z,101171.44
2023-04-28T04:38:02.977Z,101163.97
2023-04-28T04:41:44.412Z,101188.41
2023-04-28T04:44:53.210Z,101181.50
2023-04-28T04:48:22.814Z,101134.47
2023-04-28T04:51:51.583Z,101157.13
2023-04-28T04:54:59.449Z,101178.81
2023-04-28T05:06:00.685Z,101135.25
2023-04-28T05:09:58.305Z,101171.59
2023-04-28T05:22:49.218Z,101194.03
2023-04-28T05:27:07.893Z,101175.16
2023-04-28T05:40:36.169Z,101203.06
2023-04-28T05:43:59.288Z,101167.66
2023-04-28T06:18:32.974Z,101188.53
2023-04-28T06:21:40.655Z,101183.38
2023-04-28T06:24:59.454Z,101196.00
2023-04-28T06:28:16.442Z,101211.78
2023-04-28T06:31:20.119Z,101190.28
2023-04-28T06:34:27.469Z,101208.84
2023-04-28T06:37:35.147Z,101176.47
2023-04-28T06:40:53.673Z,101204.72
2023-04-28T06:44:01.078Z,101182.34
2023-04-28T06:47:27.782Z,101184.47
2023-04-28T06:52:04.140Z,101221.78
2023-04-28T06:55:26.705Z,101218.13
2023-04-28T07:12:46.858Z,101200.34
2023-04-28T07:16:30.283Z,101198.97
2023-04-28T07:19:59.821Z,101196.38
2023-04-28T07:26:46.366Z,101149.31
2023-04-28T07:30:27.453Z,101163.91
2023-04-28T07:33:28.756Z,101155.47
2023-04-28T07:44:07.481Z,101187.53
2023-04-28T07:47:44.530Z,101162.38
2023-04-28T07:50:49.241Z,101171.41
2023-04-28T07:54:04.518Z,101150.19
2023-04-28T07:57:16.009Z,101164.19
2023-04-28T08:19:12.691Z,101138.25
2023-04-28T08:22:35.551Z,101110.34
2023-04-28T08:25:42.390Z,101111.63
2023-04-28T08:29:14.684Z,101105.16
2023-04-28T08:32:35.690Z,101085.84
2023-04-28T08:35:47.136Z,101086.75
2023-04-28T08:38:55.258Z,101066.88
2023-04-28T08:42:00.160Z,101072.84
2023-04-28T08:45:13.518Z,101082.00
2023-04-28T08:48:44.110Z,101069.53
2023-04-28T08:52:47.280Z,101074.63
2023-04-28T08:55:30.208Z,101101.66
2023-04-28T09:07:19.723Z,101091.63
2023-04-28T09:10:49.618Z,101080.91
2023-04-28T09:18:58.452Z,101079.22
2023-04-28T09:23:13.225Z,101063.50
2023-04-28T10:16:36.563Z,101029.66
2023-04-28T10:20:33.807Z,101049.69
2023-04-28T10:41:18.669Z,100979.81
2023-04-28T10:44:53.861Z,101007.25
2023-04-28T10:48:47.458Z,100959.16
2023-04-28T11:01:46.440Z,100979.19
2023-04-28T11:06:58.736Z,100965.56
2023-04-28T11:09:54.382Z,100940.09
2023-04-28T11:47:04.128Z,100949.25
2023-04-28T11:51:57.197Z,100943.44
2023-04-28T11:54:31.806Z,100944.28
2023-04-28T11:57:48.862Z,100899.28
2023-04-28T12:01:17.456Z,100933.19
2023-04-28T12:04:48.190Z,100925.78
2023-04-28T12:08:03.720Z,100921.00
2023-04-28T12:11:14.451Z,100929.38
2023-04-28T12:20:29.995Z,100916.56
2023-04-28T12:24:14.323Z,100887.44
2023-04-28T12:27:25.544Z,100895.03
2023-04-28T12:30:43.488Z,100897.91
2023-04-28T12:33:50.364Z,100882.13
2023-04-28T12:36:58.346Z,100868.00
2023-04-28T12:40:15.880Z,100870.09
2023-04-28T12:43:33.000Z,100848.31
2023-04-28T12:46:38.367Z,100881.41
2023-04-28T12:49:47.376Z,100868.78
2023-04-28T12:52:53.390Z,100826.97
2023-04-28T12:56:11.681Z,100804.28
2023-04-28T12:59:16.789Z,100812.22
2023-04-28T13:02:39.625Z,100834.25
2023-04-28T13:05:48.152Z,100790.97
2023-04-28T13:08:56.810Z,100794.44
2023-04-28T13:12:06.480Z,100795.72
2023-04-28T13:15:11.032Z,100786.00
2023-04-28T13:18:14.380Z,100788.44
2023-04-28T13:21:18.917Z,100772.97
2023-04-28T13:24:25.789Z,100789.44
2023-04-28T13:27:43.495Z,100809.63
2023-04-28T13:30:48.304Z,100802.91
2023-04-28T13:33:52.864Z,100779.28
2023-04-28T13:37:01.153Z,100805.97
2023-04-28T13:40:08.580Z,100784.75
2023-04-28T13:43:11.176Z,100803.50
2023-04-28T13:46:15.501Z,100795.38
2023-04-28T13:49:22.449Z,100779.69
2023-04-28T13:52:26.236Z,100766.84
2023-04-28T13:55:29.629Z,100766.66
2023-04-28T13:58:38.601Z,100753.41
2023-04-28T14:01:41.269Z,100763.41
2023-04-28T14:04:53.114Z,100758.31
2023-04-28T14:07:56.953Z,100750.16
2023-04-28T14:11:00.381Z,100740.38
2023-04-28T14:14:04.475Z,100752.59
2023-04-28T14:17:06.977Z,100732.84
2023-04-28T14:20:13.534Z,100722.28
2023-04-28T14:23:16.510Z,100727.34
2023-04-28T14:26:26.151Z,100712.09
2023-04-28T14:29:30.979Z,100726.34
2023-04-28T14:32:35.047Z,100714.09
2023-04-28T14:35:40.308Z,100742.44
2023-04-28T14:38:49.372Z,100731.63
2023-04-28T14:42:07.607Z,100726.13
2023-04-28T14:45:15.809Z,100706.38
2023-04-28T14:48:18.124Z,100736.91
2023-04-28T14:51:24.364Z,100691.91
2023-04-28T14:54:41.511Z,100732.66
2023-04-28T14:57:44.436Z,100722.88
2023-04-28T15:00:53.509Z,100689.47
2023-04-28T15:07:14.398Z,100695.16
2023-04-28T15:10:18.213Z,100711.66
2023-04-28T15:13:25.925Z,100671.53
2023-04-28T15:16:29.699Z,100668.66
2023-04-28T15:19:42.124Z,100679.66
2023-04-28T15:22:50.058Z,100682.94
2023-04-28T15:25:53.882Z,100651.97
2023-04-28T15:29:01.370Z,100679.28
2023-04-28T15:32:05.101Z,100662.56
2023-04-28T15:35:12.498Z,100692.34
2023-04-28T15:38:31.834Z,100667.84
2023-04-28T15:41:38.938Z,100642.63
2023-04-28T15:44:45.417Z,100682.13
2023-04-28T15:47:51.194Z,100665.81
2023-04-28T15:50:56.473Z,100661.72
2023-04-28T15:54:03.940Z,100645.03
2023-04-28T15:57:09.359Z,100637.09
2023-04-28T16:00:15.054Z,100665.41
2023-04-28T16:03:18.770Z,100666.22
2023-04-28T16:06:21.435Z,100656.22
2023-04-28T16:09:24.177Z,100617.38
2023-04-28T16:12:42.049Z,100642.59
2023-04-28T16:15:48.061Z,100626.09
2023-04-28T16:18:57.667Z,100627.72
2023-04-28T16:22:04.194Z,100652.78
2023-04-28T16:25:09.727Z,100626.09
2023-04-28T16:28:12.059Z,100615.28
2023-04-28T16:31:17.030Z,100617.75
2023-04-28T16:34:23.168Z,100645.44
2023-04-28T16:37:49.028Z,100604.75
2023-04-28T16:40:52.493Z,100599.44
2023-04-28T16:43:54.496Z,100575.03
2023-04-28T16:47:46.441Z,100585.19
2023-04-28T16:50:57.595Z,100616.75
2023-04-28T16:54:07.421Z,100568.72
2023-04-28T16:57:20.427Z,100592.75
2023-04-28T17:00:26.543Z,100599.44
2023-04-28T17:03:30.387Z,100578.06
2023-04-28T17:06:36.617Z,100597.59
2023-04-28T17:13:53.016Z,100590.47
2023-04-28T17:16:56.025Z,100552.41
2023-04-28T17:20:05.244Z,100552.22
2023-04-28T17:23:08.983Z,100561.00
2023-04-28T17:26:11.944Z,100533.09
2023-04-28T17:29:17.988Z,100524.75
2023-04-28T17:32:26.823Z,100529.03
2023-04-28T17:35:29.210Z,100533.06
2023-04-28T17:38:32.586Z,100548.13
2023-04-28T17:41:43.742Z,100554.00
2023-04-28T17:44:46.156Z,100549.13
2023-04-28T17:47:50.399Z,100544.03
2023-04-28T17:50:58.967Z,100541.56
2023-04-28T17:54:21.957Z,100546.47
2023-04-28T17:57:24.450Z,100575.38
2023-04-28T18:00:27.940Z,100569.66
2023-04-28T18:03:34.793Z,100579.22
2023-04-28T18:06:37.400Z,100534.19
2023-04-28T18:09:40.674Z,100572.47
2023-04-28T18:12:43.053Z,100591.56
2023-04-28T18:15:46.457Z,100560.34
2023-04-28T18:18:49.308Z,100591.09
2023-04-28T18:21:52.555Z,100566.59
2023-04-28T18:24:55.000Z,100601.44
2023-04-28T18:27:57.454Z,100590.63
2023-04-28T18:31:07.360Z,100595.31
2023-04-28T18:34:09.841Z,100559.84
2023-04-28T18:37:17.203Z,100569.34
2023-04-28T18:40:20.423Z,100599.91
2023-04-28T18:43:25.966Z,100574.78
2023-04-28T18:46:29.697Z,100586.72
2023-04-28T18:49:32.443Z,100581.44
2023-04-28T18:52:35.541Z,100598.56
2023-04-28T18:55:38.936Z,100599.00
2023-04-28T18:58:42.655Z,100563.50
2023-04-28T19:01:44.971Z,100573.16
2023-04-28T19:04:50.791Z,100578.63
2023-04-28T19:07:56.547Z,100575.22
2023-04-28T19:10:59.476Z,100597.63
2023-04-28T19:14:03.547Z,100599.84
2023-04-28T19:17:06.125Z,100601.41
2023-04-28T19:20:09.914Z,100572.78
2023-04-28T19:23:12.958Z,100606.13
2023-04-28T19:26:18.423Z,100598.13
2023-04-28T19:29:21.598Z,100568.22
2023-04-28T19:32:23.949Z,100588.56
2023-04-28T19:35:27.636Z,100592.56
2023-04-28T19:38:30.051Z,100610.41
2023-04-28T19:41:32.387Z,100598.31
2023-04-28T19:44:36.440Z,100572.84
2023-04-28T19:47:42.633Z,100610.19
2023-04-28T19:50:51.391Z,100613.84
2023-04-28T19:54:01.394Z,100589.28
2023-04-28T19:57:14.614Z,100604.22
2023-04-28T20:00:33.476Z,100581.03
2023-04-28T20:03:39.580Z,100580.97
2023-04-28T20:06:47.142Z,100594.13
2023-04-28T20:09:56.257Z,100570.16
2023-04-28T20:12:59.266Z,100578.47
2023-04-28T20:16:07.828Z,100562.94
2023-04-28T20:19:11.281Z,100563.94
2023-04-28T20:22:15.954Z,100559.94
2023-04-28T20:25:21.508Z,100568.22
2023-04-28T20:28:31.208Z,100535.78
2023-04-28T20:31:33.911Z,100524.44
2023-04-28T20:34:41.556Z,100572.63
2023-04-28T20:37:47.118Z,100570.16
2023-04-28T20:40:52.404Z,100530.88
2023-04-28T20:43:55.833Z,100526.06
2023-04-28T20:47:01.838Z,100523.75
2023-04-28T20:50:07.382Z,100520.47
2023-04-28T20:53:15.413Z,100527.31
2023-04-28T20:56:21.242Z,100549.66
2023-04-28T20:59:26.203Z,100537.41
2023-04-28T21:02:32.814Z,100537.56
2023-04-28T21:05:37.818Z,100573.81
2023-04-28T21:08:45.296Z,100548.91
2023-04-28T21:11:52.872Z,100559.44
2023-04-28T21:15:03.863Z,100538.97
2023-04-28T21:18:06.604Z,100517.94
2023-04-28T21:21:09.758Z,100547.94
2023-04-28T21:24:14.978Z,100546.00
2023-04-28T21:27:20.659Z,100508.63
2023-04-28T21:30:28.432Z,100564.44
2023-04-28T21:33:33.352Z,100548.81
2023-04-28T21:36:36.761Z,100553.63
2023-04-28T21:39:44.877Z,100556.09
2023-04-28T21:42:50.000Z,100550.13
2023-04-28T21:45:54.448Z,100517.38
2023-04-28T21:48:58.739Z,100514.63
2023-04-28T21:52:01.337Z,100546.78
2023-04-28T21:55:03.624Z,100536.91
2023-04-28T21:58:06.574Z,100525.28
2023-04-28T22:01:17.937Z,100527.13
2023-04-28T22:04:21.526Z,100539.94
2023-04-28T22:07:27.317Z,100545.56
2023-04-28T22:10:30.976Z,100515.28
2023-04-28T22:13:37.595Z,100543.03
2023-04-28T22:16:41.668Z,100550.56
2023-04-28T22:19:44.258Z,100523.97
2023-04-28T22:22:47.793Z,100535.84
2023-04-28T22:25:51.733Z,100570.03
2023-04-28T22:28:59.842Z,100535.31
2023-04-28T22:32:03.019Z,100534.97
2023-04-28T22:35:05.816Z,100513.56
2023-04-28T22:38:09.503Z,100515.38
2023-04-28T22:41:17.518Z,100523.91
2023-04-28T22:44:23.298Z,100491.16
2023-04-28T22:47:27.134Z,100547.78
2023-04-28T22:50:31.585Z,100547.59
2023-04-28T22:53:34.318Z,100548.03
2023-04-28T22:56:39.453Z,100530.22
2023-04-28T22:59:45.731Z,100501.75
2023-04-28T23:02:51.939Z,100516.09
2023-04-28T23:05:56.599Z,100540.41
2023-04-28T23:09:06.176Z,100530.53
2023-04-28T23:12:17.443Z,100538.50
2023-04-28T23:15:20.896Z,100509.56
2023-04-28T23:18:26.492Z,100510.47
2023-04-28T23:21:31.988Z,100517.00
2023-04-28T23:24:40.179Z,100501.31
2023-04-28T23:27:47.804Z,100499.41
2023-04-28T23:30:53.264Z,100533.88
2023-04-28T23:34:22.768Z,100523.38
2023-04-28T23:37:25.564Z,100473.50
2023-04-28T23:40:32.754Z,100509.84
2023-04-28T23:43:37.707Z,100517.72
2023-04-28T23:46:44.462Z,100499.78
2023-04-28T23:49:57.902Z,100497.34
2023-04-28T23:53:05.946Z,100504.13
2023-04-28T23:56:13.504Z,100487.09
2023-04-28T23:59:18.766Z,100473.84
